< < Back
Terminal Aerodrome Forecast


Current Version              Previous Versions:   1  2  3  4  5  6  7  8  9  

Terminal Aerodrome Forecast

894
FTUS44 KBMX 301316 AAA
TAFANB
TAF AMD
KANB 301316Z 3013/3112 06004KT 6SM SHRA BR BKN020 OVC035
     FM301600 07006KT 6SM BR VCSH OVC025
     FM301800 03006KT P6SM -SHRA VCTS SCT035CB OVC050
     FM310300 05005KT P6SM BKN050
     FM310600 06004KT 4SM BR OVC015=



Latest METAR

753
SAUS70 KWBC 302000 RRC
MTRANB
METAR KANB 301953Z AUTO 04008KT 10SM OVC030 26/20 A3008 RMK AO2 SLP177
T02610200


USA.gov is the U.S. government's official web portal to all federal, state and local government web resources and services.